Time;durP1;ratioP1;P1;durP2;ratioP2;P2;SDS_P1;SDS_P2;PMS_P1;PMS_P2;Temp;Humidity;BMP_temperature;BMP_pressure;BME280_temperature;BME280_humidity;BME280_pressure;Samples;Min_cycle;Max_cycle;Signal;HPM_P1;HPM_P2
2022/06/07 00:00:45;;;;;;;43.08;4.07;;;;;;;23.94;54.21;99280.38;7313310;19;129557;-42
2022/06/07 00:03:10;;;;;;;44.27;4.23;;;;;;;23.89;54.58;99270.38;7312389;19;129072;-41
2022/06/07 00:05:36;;;;;;;63.42;5.32;;;;;;;23.96;54.33;99278.41;7312651;19;130123;-41
2022/06/07 00:08:01;;;;;;;26.25;2.35;;;;;;;23.95;54.30;99277.59;7313735;19;129226;-42
2022/06/07 00:10:26;;;;;;;23.60;2.40;;;;;;;23.94;53.68;99275.13;7313776;19;129640;-42
2022/06/07 00:12:52;;;;;;;34.80;3.33;;;;;;;23.46;50.78;99283.72;7313784;19;129637;-39
2022/06/07 00:15:19;;;;;;;22.60;2.25;;;;;;;23.42;50.68;99277.13;7313121;19;130078;-41
2022/06/07 00:17:45;;;;;;;35.80;3.27;;;;;;;23.42;49.98;99265.84;7311840;19;131058;-38
2022/06/07 00:20:11;;;;;;;28.77;2.80;;;;;;;23.61;52.58;99265.53;7314357;19;130028;-41
2022/06/07 00:22:38;;;;;;;31.00;2.80;;;;;;;23.71;53.51;99256.56;7311687;19;129617;-42
2022/06/07 00:25:06;;;;;;;26.48;2.40;;;;;;;23.77;53.41;99261.16;7312791;19;131090;-42
2022/06/07 00:27:32;;;;;;;41.78;3.95;;;;;;;23.81;53.63;99259.84;7313393;19;130760;-42
2022/06/07 00:29:57;;;;;;;34.90;3.47;;;;;;;23.85;54.13;99255.91;7313701;19;129268;-43
2022/06/07 00:32:23;;;;;;;36.20;3.15;;;;;;;23.89;53.53;99254.63;7311927;19;129064;-40
2022/06/07 00:34:49;;;;;;;32.07;2.97;;;;;;;23.91;53.58;99246.56;7309643;19;131033;-42
2022/06/07 00:37:15;;;;;;;22.93;2.33;;;;;;;23.92;53.51;99251.66;7310417;19;130677;-40
2022/06/07 00:39:40;;;;;;;34.85;3.03;;;;;;;23.93;54.33;99245.41;7310638;19;129998;-41
2022/06/07 00:42:06;;;;;;;24.80;2.50;;;;;;;23.95;53.65;99248.69;7311503;19;130763;-42
2022/06/07 00:44:35;;;;;;;43.03;3.87;;;;;;;23.96;53.63;99239.84;7312353;19;130907;-41
2022/06/07 00:47:13;;;;;;;43.50;3.95;;;;;;;23.96;54.78;99229.34;7312194;19;130404;-41
2022/06/07 00:49:54;;;;;;;25.40;2.63;;;;;;;23.96;55.61;99234.59;7312772;19;129036;-40
2022/06/07 00:52:21;;;;;;;23.67;2.47;;;;;;;23.96;55.04;99228.53;7307117;19;129186;-40
2022/06/07 00:54:47;;;;;;;18.73;1.92;;;;;;;23.93;54.35;99229.66;7310054;19;130145;-42
2022/06/07 00:57:13;;;;;;;41.20;3.93;;;;;;;23.56;50.98;99221.41;7311917;19;129615;-42
2022/06/07 00:59:39;;;;;;;24.55;2.50;;;;;;;23.46;50.66;99230.41;7313436;19;129994;-42
2022/06/07 01:02:05;;;;;;;24.38;2.35;;;;;;;23.46;50.39;99235.66;7311296;19;129763;-42
2022/06/07 01:04:31;;;;;;;27.57;2.60;;;;;;;23.55;51.26;99234.72;7311524;19;131141;-41
2022/06/07 01:12:26;;;;;;;32.10;2.88;;;;;;;23.74;53.30;99223.91;7310292;19;129741;-41
2022/06/07 01:14:51;;;;;;;25.93;2.40;;;;;;;23.85;54.04;99240.16;7309007;19;132385;-42
2022/06/07 01:17:19;;;;;;;28.23;2.63;;;;;;;23.90;53.92;99243.13;7311556;19;129421;-42
2022/06/07 01:19:44;;;;;;;27.42;2.50;;;;;;;23.91;53.69;99239.53;7311666;19;129470;-40
2022/06/07 01:22:10;;;;;;;29.13;2.53;;;;;;;23.93;53.76;99240.16;7310846;19;129841;-40
2022/06/07 01:24:36;;;;;;;30.90;2.97;;;;;;;23.95;53.89;99243.44;7311915;19;130167;-41
2022/06/07 01:27:03;;;;;;;29.55;2.75;;;;;;;23.95;53.84;99232.13;7311507;19;129606;-42
2022/06/07 01:29:28;;;;;;;26.85;2.45;;;;;;;23.97;53.90;99235.41;7311909;19;131517;-40
2022/06/07 01:31:53;;;;;;;36.70;3.30;;;;;;;23.98;53.69;99230.03;7309730;19;129029;-42
2022/06/07 01:34:19;;;;;;;27.90;2.50;;;;;;;23.98;54.19;99226.59;7307625;19;129367;-41
2022/06/07 01:36:44;;;;;;;27.10;2.42;;;;;;;23.96;54.38;99213.59;7310577;19;130406;-39
2022/06/07 01:41:54;;;;;;;38.20;3.17;;;;;;;23.56;51.17;99205.69;7310729;19;129168;-42
2022/06/07 01:44:41;;;;;;;35.92;3.10;;;;;;;23.44;50.78;99209.56;7309940;19;130760;-42
2022/06/07 01:47:10;;;;;;;37.58;3.35;;;;;;;23.42;49.76;99214.16;7310783;19;129718;-43
2022/06/07 01:49:36;;;;;;;24.13;2.22;;;;;;;23.55;51.64;99216.34;7312527;19;129161;-40
2022/06/07 01:52:02;;;;;;;34.08;3.20;;;;;;;23.69;53.08;99216.53;7308494;19;129465;-41
2022/06/07 01:54:28;;;;;;;22.77;2.10;;;;;;;23.77;53.63;99224.41;7309414;19;130402;-42
2022/06/07 01:56:53;;;;;;;12.75;1.42;;;;;;;23.82;53.20;99210.78;7311498;19;130416;-41
2022/06/07 01:59:19;;;;;;;33.00;2.85;;;;;;;23.84;53.70;99208.81;7310992;19;129210;-41
2022/06/07 02:01:46;;;;;;;35.33;2.73;;;;;;;23.88;53.58;99197.81;7312604;19;129387;-42
2022/06/07 02:04:12;;;;;;;35.25;3.17;;;;;;;23.91;53.38;99205.38;7324762;19;129559;-42
2022/06/07 02:06:38;;;;;;;25.03;2.40;;;;;;;23.94;53.57;99199.81;7324834;19;129608;-43
2022/06/07 02:09:06;;;;;;;27.15;2.42;;;;;;;23.96;53.72;99197.84;7325910;19;129265;-41
2022/06/07 02:11:32;;;;;;;30.45;2.75;;;;;;;23.96;53.57;99192.59;7323515;19;129662;-42
2022/06/07 02:13:58;;;;;;;34.53;3.20;;;;;;;23.96;54.00;99192.59;7322912;19;130121;-41
2022/06/07 02:16:23;;;;;;;9.10;1.38;;;;;;;23.96;53.90;99182.09;7324105;19;131128;-42
2022/06/07 02:18:49;;;;;;;23.17;2.10;;;;;;;23.91;53.79;99168.63;7325033;19;129572;-41
2022/06/07 02:21:16;;;;;;;19.40;1.80;;;;;;;23.95;53.91;99174.34;7323262;19;129569;-41
2022/06/07 02:23:42;;;;;;;;;;;;;;;24.02;55.70;99181.44;7324368;19;130086;-42
2022/06/07 02:26:17;;;;;;;27.05;2.55;;;;;;;23.62;51.42;99172.72;7323229;19;129402;-42
2022/06/07 02:28:48;;;;;;;25.40;2.53;;;;;;;23.47;50.70;99177.75;7323761;19;130039;-42
2022/06/07 02:31:14;;;;;;;27.77;2.47;;;;;;;23.45;50.11;99181.56;7324227;19;129730;-42
2022/06/07 02:33:40;;;;;;;27.30;2.53;;;;;;;23.45;50.11;99182.38;7322377;19;129473;-42
2022/06/07 02:36:08;;;;;;;22.02;2.10;;;;;;;23.70;53.45;99181.41;7323451;19;130394;-42
2022/06/07 02:38:38;;;;;;;25.15;2.20;;;;;;;23.75;53.27;99171.22;7322514;19;128993;-40
2022/06/07 02:41:07;;;;;;;28.13;2.75;;;;;;;23.80;53.68;99176.81;7323283;19;129517;-41
2022/06/07 02:43:32;;;;;;;34.05;2.92;;;;;;;23.75;53.40;99162.56;7323618;19;129040;-41
2022/06/07 02:45:58;;;;;;;30.55;2.95;;;;;;;23.88;53.98;99176.81;7323623;19;130005;-41
2022/06/07 02:48:24;;;;;;;35.38;2.70;;;;;;;23.81;53.88;99160.09;7322598;19;129130;-41
2022/06/07 02:50:52;;;;;;;28.15;2.47;;;;;;;23.91;53.93;99176.50;7321859;19;129260;-42
2022/06/07 02:53:18;;;;;;;31.75;2.75;;;;;;;23.85;53.75;99164.03;7321596;19;130632;-42
2022/06/07 02:55:43;;;;;;;66.32;5.45;;;;;;;23.95;53.85;99179.59;7321636;19;129270;-41
2022/06/07 02:58:08;;;;;;;32.60;3.00;;;;;;;23.96;54.78;99179.47;7324024;19;129144;-42
2022/06/07 03:00:34;;;;;;;24.57;2.17;;;;;;;23.97;54.05;99183.72;7322840;19;129610;-41
2022/06/07 03:02:59;;;;;;;27.95;2.75;;;;;;;23.98;54.13;99174.88;7321953;19;131329;-41
2022/06/07 03:05:25;;;;;;;27.23;2.50;;;;;;;24.00;55.02;99178.16;7323217;19;129653;-41
2022/06/07 03:07:51;;;;;;;31.27;2.83;;;;;;;23.98;53.60;99180.13;7322884;19;129381;-41
2022/06/07 03:10:17;;;;;;;31.17;2.87;;;;;;;23.55;51.26;99182.22;7322697;19;129286;-41
2022/06/07 03:12:42;;;;;;;41.80;3.57;;;;;;;23.49;50.02;99190.72;7321968;19;131630;-42
2022/06/07 03:15:08;;;;;;;24.13;2.20;;;;;;;23.47;50.08;99196.13;7310048;19;129189;-40
2022/06/07 03:17:34;;;;;;;33.20;3.10;;;;;;;23.60;51.41;99196.47;7315762;19;129165;-40
2022/06/07 03:20:00;;;;;;;23.47;2.03;;;;;;;23.72;53.92;99197.81;7315936;19;130164;-42
2022/06/07 03:22:25;;;;;;;33.33;2.83;;;;;;;23.70;53.47;99188.47;7313368;19;129004;-41
2022/06/07 03:24:51;;;;;;;29.65;2.70;;;;;;;23.83;53.28;99196.69;7315349;19;129377;-42
2022/06/07 03:27:16;;;;;;;70.43;5.60;;;;;;;23.87;54.17;99198.81;7311730;19;129020;-41
2022/06/07 03:29:42;;;;;;;39.95;3.50;;;;;;;23.90;54.04;99195.84;7311684;19;129258;-42
2022/06/07 03:32:08;;;;;;;23.80;2.03;;;;;;;23.94;53.29;99201.59;7313305;19;130264;-42
2022/06/07 03:34:35;;;;;;;39.50;3.50;;;;;;;23.86;54.41;99188.47;7312523;19;131027;-43
2022/06/07 03:37:01;;;;;;;47.85;3.63;;;;;;;23.96;53.68;99197.84;7313244;19;129011;-42
2022/06/07 03:39:27;;;;;;;31.45;2.80;;;;;;;23.96;53.98;99191.75;7314803;19;128943;-39
2022/06/07 03:41:52;;;;;;;28.70;2.53;;;;;;;23.97;53.56;99198.63;7313878;19;129594;-43
2022/06/07 03:44:18;;;;;;;19.43;1.93;;;;;;;23.91;54.76;99184.38;7313605;19;129593;-41
2022/06/07 03:46:45;;;;;;;37.43;3.17;;;;;;;23.98;55.18;99202.97;7312808;19;129538;-41
2022/06/07 03:49:12;;;;;;;23.50;2.17;;;;;;;23.98;54.50;99201.13;7315297;19;128786;-41
2022/06/07 03:51:37;;;;;;;37.08;3.30;;;;;;;24.00;54.45;99198.34;7313356;19;129318;-41
2022/06/07 03:54:04;;;;;;;27.20;2.72;;;;;;;23.53;51.31;99199.94;7311720;19;129842;-41
2022/06/07 03:56:30;;;;;;;34.03;2.97;;;;;;;23.46;50.58;99199.75;7311275;19;129107;-39
2022/06/07 03:58:57;;;;;;;26.30;2.40;;;;;;;23.39;49.85;99180.38;7312571;19;129586;-40
2022/06/07 04:01:24;;;;;;;22.52;2.10;;;;;;;23.66;51.73;99200.28;7311446;19;130903;-42
2022/06/07 04:03:51;;;;;;;33.40;3.20;;;;;;;23.67;53.62;99181.72;7313894;19;130546;-42
2022/06/07 04:06:33;;;;;;;22.02;2.28;;;;;;;23.81;55.13;99188.97;7314354;19;129073;-42
2022/06/07 04:08:58;;;;;;;29.15;2.72;;;;;;;23.78;54.04;99170.94;7314717;19;129501;-42
2022/06/07 04:11:25;;;;;;;37.73;3.17;;;;;;;23.90;53.74;99176.69;7313238;19;129442;-44
2022/06/07 04:13:53;;;;;;;34.25;2.92;;;;;;;23.94;53.75;99191.09;7307278;19;130134;-42
2022/06/07 04:16:21;;;;;;;30.95;2.80;;;;;;;23.94;54.32;99194.56;7312959;19;129990;-43
2022/06/07 04:18:47;;;;;;;36.97;3.40;;;;;;;23.97;53.54;99188.97;7300184;19;129773;-43
2022/06/07 04:21:13;;;;;;;25.77;2.43;;;;;;;23.98;53.68;99190.63;7311673;19;130983;-42
2022/06/07 04:23:39;;;;;;;26.10;2.38;;;;;;;23.96;53.49;99189.97;7311041;19;129685;-42
2022/06/07 04:26:17;;;;;;;30.75;2.75;;;;;;;24.01;55.22;99194.75;7312135;19;128967;-40
2022/06/07 04:28:42;;;;;;;33.47;3.00;;;;;;;24.00;53.75;99188.66;7310147;19;130400;-40
2022/06/07 04:31:14;;;;;;;20.05;1.95;;;;;;;23.91;54.83;99179.13;7311844;19;130708;-42
2022/06/07 04:33:40;;;;;;;37.53;3.38;;;;;;;24.00;55.01;99191.28;7311315;19;130849;-41
2022/06/07 04:36:11;;;;;;;46.28;4.13;;;;;;;23.72;51.23;99189.09;7309606;19;130088;-41
2022/06/07 04:38:36;;;;;;;30.30;3.38;;;;;;;23.48;50.32;99184.69;7311553;19;129020;-42
2022/06/07 04:41:07;;;;;;;42.63;4.25;;;;;;;23.50;49.60;99195.00;7310445;19;128977;-42
2022/06/07 04:43:33;;;;;;;38.47;3.28;;;;;;;23.55;50.57;99188.28;7310495;19;129257;-39
2022/06/07 04:46:04;;;;;;;33.60;3.20;;;;;;;23.73;53.84;99191.59;7309268;19;128915;-42
2022/06/07 04:48:29;;;;;;;106.20;8.48;;;;;;;23.81;53.23;99188.97;7307812;19;130559;-38
2022/06/07 04:51:27;;;;;;;71.40;6.07;;;;;;;23.90;55.60;99190.59;7296753;19;129978;-38
2022/06/07 04:53:54;;;;;;;34.53;3.30;;;;;;;23.93;53.62;99195.53;7298309;19;130693;-40
2022/06/07 04:56:22;;;;;;;58.45;4.72;;;;;;;23.95;54.06;99190.94;7310829;19;130361;-40
2022/06/07 04:58:48;;;;;;;38.00;3.47;;;;;;;23.96;53.79;99187.34;7309396;19;130724;-39
2022/06/07 05:01:19;;;;;;;51.97;4.57;;;;;;;24.01;54.63;99200.00;7307996;19;130684;-39
2022/06/07 05:03:45;;;;;;;28.77;2.72;;;;;;;24.01;54.04;99195.56;7309894;19;130758;-39
2022/06/07 05:06:25;;;;;;;64.13;5.63;;;;;;;24.03;54.89;99204.09;7304932;19;132594;-41
2022/06/07 05:08:53;;;;;;;51.53;4.05;;;;;;;24.02;54.40;99199.84;7309813;19;129685;-39
2022/06/07 05:11:19;;;;;;;59.42;5.35;;;;;;;24.02;54.22;99202.47;7308862;19;129089;-39
2022/06/07 05:13:44;;;;;;;30.55;2.97;;;;;;;24.03;54.54;99196.22;7308158;19;131201;-40
2022/06/07 05:16:10;;;;;;;38.17;4.10;;;;;;;24.03;54.17;99196.22;7305797;19;130084;-42
2022/06/07 05:18:36;;;;;;;15.50;1.90;;;;;;;24.04;54.64;99200.50;7311674;19;129637;-39
2022/06/07 05:21:09;;;;;;;26.23;2.97;;;;;;;23.59;51.58;99202.72;7310223;19;129834;-39
2022/06/07 05:23:35;;;;;;;47.85;4.25;;;;;;;23.50;50.85;99200.25;7311315;19;131009;-40
2022/06/07 05:26:15;;;;;;;55.60;4.90;;;;;;;23.50;49.94;99200.25;7310191;19;129503;-41
2022/06/07 05:28:42;;;;;;;26.98;2.40;;;;;;;23.64;52.53;99208.31;7311643;19;129727;-41
2022/06/07 05:31:08;;;;;;;25.80;2.28;;;;;;;23.76;53.88;99207.03;7310123;19;130104;-39
2022/06/07 05:33:33;;;;;;;46.30;4.28;;;;;;;23.83;53.78;99207.97;7311865;19;130293;-40
2022/06/07 05:35:59;;;;;;;29.02;3.08;;;;;;;23.89;53.67;99201.28;7311658;19;130864;-40
2022/06/07 05:38:25;;;;;;;31.83;3.23;;;;;;;23.93;54.38;99198.16;7312583;19;129045;-40
2022/06/07 05:40:51;;;;;;;34.33;3.05;;;;;;;23.96;53.98;99195.22;7311405;19;130300;-41
2022/06/07 05:43:17;;;;;;;24.35;2.42;;;;;;;24.00;53.64;99204.41;7311715;19;129272;-40
2022/06/07 05:45:47;;;;;;;44.63;4.40;;;;;;;24.00;54.58;99208.84;7309968;19;129438;-42
2022/06/07 05:48:13;;;;;;;36.15;3.28;;;;;;;24.00;54.41;99203.59;7310919;19;130090;-40
2022/06/07 05:50:38;;;;;;;40.80;3.90;;;;;;;23.94;54.29;99197.19;7304951;19;129158;-42
2022/06/07 05:53:04;;;;;;;27.65;3.00;;;;;;;24.04;54.21;99211.00;7309195;19;129580;-40
2022/06/07 05:55:29;;;;;;;33.13;3.43;;;;;;;24.03;54.98;99219.03;7305844;19;130770;-40
2022/06/07 05:57:55;;;;;;;30.05;3.35;;;;;;;24.04;54.77;99213.63;7307809;19;129051;-39
2022/06/07 06:00:21;;;;;;;33.97;3.53;;;;;;;23.94;54.18;99209.47;7309787;19;129837;-41
2022/06/07 06:02:47;;;;;;;30.25;4.45;;;;;;;23.80;52.17;99224.06;7305265;19;129496;-39
2022/06/07 06:05:13;;;;;;;35.80;3.97;;;;;;;23.56;52.02;99225.84;7311806;19;129316;-40
2022/06/07 06:10:19;;;;;;;39.57;4.37;;;;;;;23.55;50.90;99230.25;7307420;19;128882;-40
2022/06/07 06:10:25;;;;;;;31.00;3.58;;;;;;;23.56;50.39;99225.84;7308804;19;130160;-39
2022/06/07 06:12:50;;;;;;;34.90;3.87;;;;;;;23.75;52.87;99231.59;7306990;19;129990;-40
2022/06/07 06:15:16;;;;;;;26.47;3.53;;;;;;;23.83;53.88;99226.38;7308690;19;130345;-41
2022/06/07 06:17:42;;;;;;;63.60;6.10;;;;;;;23.88;53.75;99228.53;7305607;19;129098;-41
2022/06/07 06:20:09;;;;;;;32.15;4.07;;;;;;;23.83;54.19;99222.94;7308168;19;130112;-39
2022/06/07 06:22:35;;;;;;;44.05;5.00;;;;;;;23.96;54.16;99237.22;7307688;19;130379;-40
2022/06/07 06:25:01;;;;;;;50.27;5.03;;;;;;;24.01;54.25;99239.38;7309260;19;129197;-40
2022/06/07 06:27:28;;;;;;;31.47;3.77;;;;;;;24.02;54.18;99236.59;7309826;19;129221;-40
2022/06/07 06:29:53;;;;;;;36.00;4.32;;;;;;;24.04;54.10;99244.31;7308516;19;130214;-39
2022/06/07 06:32:19;;;;;;;32.63;4.20;;;;;;;24.05;53.72;99243.31;7305838;19;130313;-42
2022/06/07 06:34:44;;;;;;;40.00;5.37;;;;;;;24.06;54.60;99235.31;7307904;19;128981;-40
2022/06/07 06:37:10;;;;;;;32.97;4.20;;;;;;;24.05;54.58;99238.88;7308143;19;129024;-39
2022/06/07 06:39:35;;;;;;;28.60;4.05;;;;;;;24.04;54.74;99232.00;7307857;19;129304;-40
2022/06/07 06:42:01;;;;;;;40.50;5.43;;;;;;;24.05;54.64;99240.69;7305264;19;129097;-41
2022/06/07 06:44:26;;;;;;;13.60;2.90;;;;;;;24.04;54.81;99239.88;7309799;19;129852;-41
2022/06/07 06:46:52;;;;;;;47.17;5.70;;;;;;;23.65;51.97;99228.31;7308558;19;129582;-40
2022/06/07 06:49:19;;;;;;;22.95;3.47;;;;;;;23.55;51.24;99235.50;7310880;19;130142;-39
2022/06/07 06:51:46;;;;;;;14.75;3.38;;;;;;;23.54;50.98;99233.03;7315275;19;130380;-42
2022/06/07 06:54:13;;;;;;;31.48;3.97;;;;;;;23.55;50.40;99230.25;7313935;19;129187;-41
2022/06/07 06:56:39;;;;;;;19.63;3.55;;;;;;;23.66;52.55;99219.47;7316053;19;129002;-40
2022/06/07 06:59:05;;;;;;;48.40;5.23;;;;;;;23.84;53.41;99235.06;7316241;19;130533;-39
2022/06/07 07:01:33;;;;;;;44.93;4.87;;;;;;;23.87;54.40;99235.56;7312839;19;129639;-42
2022/06/07 07:04:01;;;;;;;43.65;5.57;;;;;;;23.91;54.84;99243.94;7314373;19;129107;-41
2022/06/07 07:06:28;;;;;;;44.38;5.28;;;;;;;23.94;53.90;99244.44;7313212;19;130012;-42
2022/06/07 07:08:55;;;;;;;36.38;4.50;;;;;;;23.93;54.03;99229.66;7316598;19;129368;-43
2022/06/07 07:11:20;;;;;;;;;;;;;;;24.10;55.21;99239.22;7309307;19;129850;-41
2022/06/07 07:13:46;;;;;;;26.63;3.88;;;;;;;24.04;54.07;99242.50;7316008;19;129123;-43
2022/06/07 07:16:16;;;;;;;49.97;5.68;;;;;;;24.04;54.75;99237.25;7303632;19;129831;-41
2022/06/07 07:18:42;;;;;;;20.75;3.25;;;;;;;24.07;54.22;99242.19;7314603;19;129538;-42
2022/06/07 07:21:12;;;;;;;35.50;4.90;;;;;;;24.07;54.75;99231.69;7306574;19;130575;-41
2022/06/07 07:23:38;;;;;;;29.20;4.68;;;;;;;24.09;54.66;99234.97;7314764;19;129309;-39
2022/06/07 07:26:11;;;;;;;38.00;4.83;;;;;;;24.06;54.91;99230.03;7314359;19;130518;-42
2022/06/07 07:28:38;;;;;;;39.60;4.28;;;;;;;24.05;54.76;99236.25;7312511;19;129134;-41
2022/06/07 07:31:06;;;;;;;50.88;5.50;;;;;;;23.88;53.09;99233.78;7313905;19;130742;-43
2022/06/07 07:33:32;;;;;;;35.50;4.13;;;;;;;23.58;51.18;99229.97;7316149;19;129714;-43
2022/06/07 07:36:00;;;;;;;30.80;4.30;;;;;;;23.56;51.20;99225.84;7310528;19;130015;-41
2022/06/07 07:38:26;;;;;;;25.65;3.40;;;;;;;23.58;50.58;99229.13;7315421;19;130293;-40
2022/06/07 07:40:51;;;;;;;31.05;3.78;;;;;;;23.75;53.23;99226.34;7314859;19;130864;-42
2022/06/07 07:43:18;;;;;;;39.03;4.88;;;;;;;23.83;54.07;99233.44;7314027;19;129249;-41
2022/06/07 07:45:44;;;;;;;57.13;6.38;;;;;;;23.88;54.06;99228.53;7314314;19;128759;-42
2022/06/07 07:48:09;;;;;;;34.72;4.30;;;;;;;23.94;54.02;99233.94;7315217;19;130294;-42
2022/06/07 07:50:36;;;;;;;30.43;3.97;;;;;;;23.94;53.49;99236.56;7315539;19;130371;-42
2022/06/07 07:53:02;;;;;;;36.83;4.68;;;;;;;23.90;53.79;99214.22;7313651;19;128934;-40
2022/06/07 07:55:27;;;;;;;39.33;4.38;;;;;;;24.02;54.11;99218.22;7311188;19;128986;-41
2022/06/07 07:57:53;;;;;;;42.67;4.83;;;;;;;24.04;53.63;99226.75;7313152;19;130085;-43
2022/06/07 08:00:18;;;;;;;20.58;3.30;;;;;;;24.06;54.19;99221.34;7311445;19;130247;-41
2022/06/07 08:02:44;;;;;;;28.83;3.70;;;;;;;24.08;54.35;99227.25;7313856;19;130686;-42
2022/06/07 08:05:10;;;;;;;65.10;6.47;;;;;;;24.07;55.10;99223.78;7311198;19;129735;-39
2022/06/07 08:07:36;;;;;;;26.73;3.97;;;;;;;24.06;54.69;99224.78;7313879;19;129837;-41
2022/06/07 08:10:03;;;;;;;46.17;4.70;;;;;;;24.08;54.49;99233.31;7313819;19;130292;-42
2022/06/07 08:12:29;;;;;;;29.58;3.95;;;;;;;24.00;54.37;99222.81;7310805;19;129062;-43
2022/06/07 08:14:55;;;;;;;30.83;4.53;;;;;;;23.86;51.94;99233.09;7312902;19;129330;-42
2022/06/07 08:17:20;;;;;;;39.00;5.00;;;;;;;23.58;50.86;99229.97;7311138;19;129507;-42
2022/06/07 08:19:46;;;;;;;185.47;15.57;;;;;;;23.52;50.58;99225.34;7306715;19;129600;-38
2022/06/07 08:22:12;;;;;;;43.97;5.05;;;;;;;23.55;49.95;99230.25;7309317;19;128975;-42
2022/06/07 08:24:37;;;;;;;38.47;4.53;;;;;;;23.77;53.38;99223.56;7313271;19;129813;-41
2022/06/07 08:27:03;;;;;;;52.03;5.43;;;;;;;23.83;53.37;99215.84;7310443;19;130068;-41
2022/06/07 08:29:29;;;;;;;38.93;4.60;;;;;;;23.88;53.07;99216.19;7306720;19;130347;-40
2022/06/07 08:31:55;;;;;;;39.03;4.70;;;;;;;23.95;53.68;99216.34;7311566;19;129320;-40
2022/06/07 08:39:49;;;;;;;36.22;4.15;;;;;;;24.02;54.35;99210.34;7313175;19;129891;-41
2022/06/07 08:42:26;;;;;;;40.97;4.70;;;;;;;23.97;54.29;99193.38;7307099;19;129705;-39
2022/06/07 08:44:59;;;;;;;29.10;3.67;;;;;;;23.99;55.34;99192.28;7312988;19;129083;-40
2022/06/07 08:47:49;;;;;;;36.85;4.45;;;;;;;24.09;55.61;99208.69;7306868;19;133850;-39
2022/06/07 08:50:22;;;;;;;32.15;3.65;;;;;;;24.08;55.48;99196.53;7313050;19;130562;-39
2022/06/07 08:52:51;;;;;;;21.42;3.35;;;;;;;24.00;54.35;99190.47;7305503;19;129488;-40
2022/06/07 08:55:39;;;;;;;47.00;4.65;;;;;;;24.05;54.38;99202.13;7310277;19;129744;-41
2022/06/07 08:58:26;;;;;;;32.83;3.95;;;;;;;23.81;51.45;99203.91;7307351;19;130178;-40
2022/06/07 09:00:57;;;;;;;40.67;3.90;;;;;;;23.58;50.40;99189.78;7308724;19;129671;-40
2022/06/07 09:03:34;;;;;;;36.47;3.97;;;;;;;23.48;50.06;99182.06;7307242;19;129335;-41
2022/06/07 09:06:03;;;;;;;22.85;3.22;;;;;;;23.49;50.70;99174.97;7311828;19;129558;-40
2022/06/07 09:08:42;;;;;;;28.17;3.45;;;;;;;23.78;54.77;99193.72;7312567;19;130202;-40
2022/06/07 09:14:05;;;;;;;32.78;4.05;;;;;;;23.95;53.50;99190.09;7312530;19;129522;-40
2022/06/07 09:16:40;;;;;;;35.67;4.00;;;;;;;23.95;54.82;99192.72;7310995;19;129435;-40
2022/06/07 09:19:17;;;;;;;38.63;4.35;;;;;;;23.97;55.28;99188.97;7312489;19;130957;-40
2022/06/07 09:21:44;;;;;;;40.47;4.40;;;;;;;24.03;53.91;99198.03;7311156;19;131119;-39
2022/06/07 09:24:41;;;;;;;14.73;2.92;;;;;;;24.05;55.22;99201.28;7311572;19;129047;-40
2022/06/07 09:27:18;;;;;;;34.20;3.90;;;;;;;24.04;55.40;99192.63;7310992;19;129474;-40
2022/06/07 09:30:27;;;;;;;34.50;3.83;;;;;;;24.07;55.46;99194.91;7311062;19;129512;-39
2022/06/07 09:32:52;;;;;;;32.78;3.70;;;;;;;24.05;54.36;99191.63;7308916;19;130459;-39
2022/06/07 09:35:34;;;;;;;17.83;2.90;;;;;;;24.05;56.01;99196.03;7310058;19;129245;-39
2022/06/07 09:38:29;;;;;;;34.42;3.88;;;;;;;24.05;56.04;99196.88;7312419;19;129481;-40
2022/06/07 09:40:56;;;;;;;28.05;3.17;;;;;;;23.85;52.54;99192.91;7310070;19;129153;-40
2022/06/07 09:43:38;;;;;;;23.65;2.90;;;;;;;23.49;50.44;99186.31;7312944;19;130330;-39
2022/06/07 09:46:10;;;;;;;29.60;3.20;;;;;;;23.55;50.53;99188.28;7310768;19;129014;-40
2022/06/07 09:48:37;;;;;;;32.42;3.58;;;;;;;23.56;50.73;99184.69;7312503;19;130027;-41
2022/06/07 09:51:02;;;;;;;;;;;;;;;23.84;54.67;99187.81;7311528;19;129309;-39
2022/06/07 09:53:38;;;;;;;29.20;2.90;;;;;;;23.84;54.67;99186.03;7311619;19;129368;-40
2022/06/07 09:56:44;;;;;;;56.22;4.85;;;;;;;23.87;55.68;99177.81;7305838;19;129624;-40
2022/06/07 09:59:34;;;;;;;69.32;6.00;;;;;;;23.94;55.00;99184.06;7302651;19;129204;-40
2022/06/07 10:02:04;;;;;;;32.35;3.78;;;;;;;23.98;54.66;99184.56;7302879;19;129449;-40
2022/06/07 10:04:45;;;;;;;43.25;4.28;;;;;;;24.01;55.12;99184.25;7306292;19;131553;-40
2022/06/07 10:07:22;;;;;;;38.05;3.55;;;;;;;24.01;55.04;99174.56;7309277;19;129219;-41
2022/06/07 10:10:04;;;;;;;;;;;;;;;24.14;55.84;99189.81;7306486;19;129370;-40
2022/06/07 10:12:45;;;;;;;38.53;3.83;;;;;;;24.06;54.84;99181.94;7302890;19;129384;-41
2022/06/07 10:15:32;;;;;;;26.40;2.85;;;;;;;24.08;55.55;99186.03;7307922;19;129693;-40
2022/06/07 10:18:22;;;;;;;43.53;4.40;;;;;;;24.04;55.68;99190.00;7309370;19;129301;-40
2022/06/07 10:20:50;;;;;;;41.60;4.05;;;;;;;24.04;53.77;99184.72;7308695;19;129001;-41
2022/06/07 10:23:35;;;;;;;36.47;3.83;;;;;;;24.05;56.34;99185.53;7312098;19;129173;-40
2022/06/07 10:26:37;;;;;;;116.75;10.48;;;;;;;23.61;50.76;99182.41;7305501;19;130352;-41
2022/06/07 10:29:19;;;;;;;45.28;4.07;;;;;;;23.55;50.28;99183.03;7315112;19;128995;-41
2022/06/07 10:31:57;;;;;;;24.90;2.65;;;;;;;23.54;49.93;99176.16;7311199;19;130840;-41
2022/06/07 10:34:51;;;;;;;24.48;2.85;;;;;;;23.78;54.94;99185.84;7317129;19;129566;-40
2022/06/07 10:37:22;;;;;;;17.80;2.40;;;;;;;23.84;54.54;99186.03;7307602;19;131218;-39
2022/06/07 10:40:12;;;;;;;22.90;2.92;;;;;;;23.88;54.78;99184.69;7316972;19;129115;-40
2022/06/07 10:42:54;;;;;;;47.00;4.07;;;;;;;23.95;55.55;99183.06;7307849;19;129064;-40
2022/06/07 10:45:21;;;;;;;32.72;3.58;;;;;;;23.88;53.81;99171.56;7316117;19;130006;-40
2022/06/07 10:48:04;;;;;;;22.63;2.42;;;;;;;23.99;55.20;99187.03;7313266;19;130952;-39
2022/06/07 10:50:36;;;;;;;30.65;3.17;;;;;;;24.01;55.70;99185.06;7315353;19;129108;-40
2022/06/07 10:53:15;;;;;;;29.33;3.10;;;;;;;24.01;55.23;99182.44;7313958;19;129131;-39
2022/06/07 10:55:45;;;;;;;50.67;4.65;;;;;;;24.02;53.54;99181.44;7313883;19;129433;-40
2022/06/07 10:58:38;;;;;;;25.13;2.60;;;;;;;24.03;55.76;99188.31;7312810;19;129680;-40
2022/06/07 11:01:14;;;;;;;32.05;3.17;;;;;;;24.05;55.41;99190.78;7315467;19;129122;-41
2022/06/07 11:09:19;;;;;;;26.45;2.75;;;;;;;24.05;55.80;99186.38;7316341;19;128907;-40
2022/06/07 11:09:58;;;;;;;27.80;3.00;;;;;;;23.64;51.17;99187.31;7317579;19;130008;-39
2022/06/07 11:12:33;;;;;;;22.33;2.50;;;;;;;23.49;49.98;99188.94;7314653;19;129608;-41
2022/06/07 11:15:37;;;;;;;28.45;3.15;;;;;;;23.52;49.33;99191.22;7314642;19;131586;-38
2022/06/07 11:18:20;;;;;;;29.00;3.10;;;;;;;23.74;54.33;99187.97;7313367;19;132055;-40
2022/06/07 11:21:02;;;;;;;26.70;2.70;;;;;;;23.82;54.60;99184.53;7315713;19;130464;-39
2022/06/07 11:23:33;;;;;;;24.88;2.53;;;;;;;23.79;54.93;99175.19;7315149;19;129372;-39
2022/06/07 11:26:17;;;;;;;35.80;3.50;;;;;;;23.91;54.90;99184.38;7314784;19;130482;-40
2022/06/07 11:28:50;;;;;;;26.88;2.75;;;;;;;23.94;54.94;99189.31;7316275;19;130136;-40
2022/06/07 11:31:15;;;;;;;29.33;2.92;;;;;;;23.97;53.72;99188.97;7314194;19;130004;-40
2022/06/07 11:34:01;;;;;;;25.17;2.67;;;;;;;24.01;55.67;99179.81;7316386;19;130073;-41
2022/06/07 11:36:35;;;;;;;15.40;1.85;;;;;;;24.00;55.56;99180.78;7304470;19;129518;-40
2022/06/07 11:39:19;;;;;;;43.70;4.10;;;;;;;23.98;55.66;99185.38;7313832;19;130168;-40
2022/06/07 11:41:48;;;;;;;40.30;3.72;;;;;;;24.00;54.81;99186.03;7307096;19;130483;-40
2022/06/07 11:44:16;;;;;;;27.45;2.90;;;;;;;24.02;55.23;99180.63;7314961;19;129243;-40
2022/06/07 11:46:51;;;;;;;91.85;7.97;;;;;;;24.01;55.79;99185.06;7309172;19;129193;-40
2022/06/07 11:49:23;;;;;;;31.60;3.25;;;;;;;24.01;54.79;99177.19;7314990;19;129262;-39
2022/06/07 11:51:57;;;;;;;26.33;2.85;;;;;;;23.65;51.62;99160.06;7307132;19;130258;-40